createdAt,value
2019-05-03T00:00:58.107Z,0.00
2019-05-03T00:01:58.128Z,0.00
2019-05-03T00:02:58.082Z,0.00
2019-05-03T00:03:58.088Z,0.00
2019-05-03T00:04:58.056Z,0.00
2019-05-03T00:05:58.052Z,0.00
2019-05-03T00:06:58.036Z,0.00
2019-05-03T00:07:58.047Z,0.00
2019-05-03T00:08:58.028Z,0.00
2019-05-03T00:09:58.008Z,0.00
2019-05-03T00:10:58.015Z,0.00
2019-05-03T00:11:58.022Z,0.00
2019-05-03T00:12:57.967Z,0.00
2019-05-03T00:13:57.961Z,0.00
2019-05-03T00:14:57.970Z,0.00
2019-05-03T00:15:57.937Z,0.00
2019-05-03T00:16:57.932Z,0.00
2019-05-03T00:17:57.945Z,0.00
2019-05-03T00:19:00.820Z,0.00
2019-05-03T00:19:57.920Z,0.00
2019-05-03T00:20:57.920Z,0.00
2019-05-03T00:21:57.904Z,0.00
2019-05-03T00:22:57.880Z,0.00
2019-05-03T00:23:57.941Z,0.00
2019-05-03T00:25:05.973Z,0.00
2019-05-03T00:25:58.823Z,0.00
2019-05-03T00:26:57.858Z,0.00
2019-05-03T00:27:57.826Z,0.00
2019-05-03T00:28:57.823Z,0.00
2019-05-03T00:29:57.862Z,0.00
2019-05-03T00:30:57.835Z,0.00
2019-05-03T00:31:57.814Z,0.00
2019-05-03T00:32:57.769Z,0.00
2019-05-03T00:33:57.737Z,0.00
2019-05-03T00:34:57.752Z,0.00
2019-05-03T00:35:57.718Z,0.00
2019-05-03T00:36:57.727Z,0.00
2019-05-03T00:37:57.721Z,0.00
2019-05-03T00:38:57.739Z,0.00
2019-05-03T00:39:57.674Z,0.00
2019-05-03T00:40:57.664Z,0.00
2019-05-03T00:41:57.652Z,0.00
2019-05-03T00:42:57.676Z,0.00
2019-05-03T00:43:57.643Z,0.00
2019-05-03T00:44:57.648Z,0.00
2019-05-03T00:45:57.611Z,0.00
2019-05-03T00:46:57.597Z,0.00
2019-05-03T00:47:57.610Z,0.00
2019-05-03T00:48:57.599Z,0.00
2019-05-03T00:49:57.612Z,0.00
2019-05-03T00:50:57.552Z,0.00
2019-05-03T00:51:57.545Z,0.00
2019-05-03T00:52:57.556Z,0.00
2019-05-03T00:53:57.519Z,0.00
2019-05-03T00:54:57.510Z,0.00
2019-05-03T00:55:57.524Z,0.00
2019-05-03T00:56:57.515Z,0.00
2019-05-03T00:57:57.527Z,0.00
2019-05-03T00:58:57.462Z,0.00
2019-05-03T00:59:57.454Z,0.00
2019-05-03T01:00:57.450Z,0.00
2019-05-03T01:01:57.468Z,0.00
2019-05-03T01:02:57.442Z,0.00
2019-05-03T01:03:57.413Z,0.00
2019-05-03T01:04:57.399Z,0.00
2019-05-03T01:05:57.390Z,0.00
2019-05-03T01:06:57.389Z,0.00
2019-05-03T01:07:57.385Z,0.00
2019-05-03T01:08:57.352Z,0.00
2019-05-03T01:09:57.341Z,0.00
2019-05-03T01:10:57.331Z,0.00
2019-05-03T01:11:57.317Z,0.00
2019-05-03T01:12:57.339Z,0.00
2019-05-03T01:13:57.299Z,0.00
2019-05-03T01:14:57.291Z,0.00
2019-05-03T01:15:57.276Z,0.00
2019-05-03T01:16:57.267Z,0.00
2019-05-03T01:17:57.310Z,0.00
2019-05-03T01:18:57.240Z,0.00
2019-05-03T01:19:57.233Z,0.00
2019-05-03T01:20:57.221Z,0.00
2019-05-03T01:21:57.222Z,0.00
2019-05-03T01:22:57.228Z,0.00
2019-05-03T01:23:57.208Z,0.00
2019-05-03T01:24:57.187Z,0.00
2019-05-03T01:25:57.190Z,0.00
2019-05-03T01:26:57.157Z,0.00
2019-05-03T01:27:57.144Z,0.00
2019-05-03T01:28:57.162Z,0.00
2019-05-03T01:29:57.145Z,0.00
2019-05-03T01:30:57.113Z,0.00
2019-05-03T01:31:57.102Z,0.00
2019-05-03T01:32:57.089Z,0.00
2019-05-03T01:33:57.082Z,0.00
2019-05-03T01:34:57.325Z,0.00
2019-05-03T01:35:57.058Z,0.00
2019-05-03T01:36:57.045Z,0.00
2019-05-03T01:37:57.044Z,0.00
2019-05-03T01:38:57.024Z,0.00
2019-05-03T01:39:57.027Z,0.00
2019-05-03T01:40:57.037Z,0.00
2019-05-03T01:41:56.990Z,0.00
2019-05-03T01:42:57.009Z,0.00
2019-05-03T01:43:56.974Z,0.00
2019-05-03T01:44:56.985Z,0.00
2019-05-03T01:45:56.947Z,0.00
2019-05-03T01:46:56.960Z,0.00
2019-05-03T01:47:56.959Z,0.00
2019-05-03T01:48:56.927Z,0.00
2019-05-03T01:49:56.916Z,0.00
2019-05-03T01:50:56.899Z,0.00
2019-05-03T01:51:56.884Z,0.00
2019-05-03T01:52:56.905Z,0.00
2019-05-03T01:53:56.891Z,0.00
2019-05-03T01:54:56.853Z,0.00
2019-05-03T01:55:56.845Z,0.00
2019-05-03T01:56:59.224Z,0.00
2019-05-03T01:57:56.878Z,0.00
2019-05-03T01:58:56.826Z,0.00
2019-05-03T01:59:56.804Z,0.00
2019-05-03T02:00:56.789Z,0.00
2019-05-03T02:01:56.829Z,0.00
2019-05-03T02:02:56.810Z,0.00
2019-05-03T02:03:56.834Z,0.00
2019-05-03T02:04:56.756Z,0.00
2019-05-03T02:05:56.739Z,0.00
2019-05-03T02:06:56.752Z,0.00
2019-05-03T02:07:56.745Z,0.00
2019-05-03T02:08:56.719Z,0.00
2019-05-03T02:09:56.718Z,0.00
2019-05-03T02:10:56.734Z,0.00
2019-05-03T02:11:56.674Z,0.00
2019-05-03T02:12:56.683Z,0.00
2019-05-03T02:13:56.673Z,0.00
2019-05-03T02:14:56.710Z,0.00
2019-05-03T02:15:56.631Z,0.00
2019-05-03T02:16:56.627Z,0.00
2019-05-03T02:17:56.603Z,0.00
2019-05-03T02:18:56.593Z,0.00
2019-05-03T02:19:56.606Z,0.00
2019-05-03T02:20:56.594Z,0.00
2019-05-03T02:21:56.588Z,0.00
2019-05-03T02:22:56.607Z,0.00
2019-05-03T02:23:56.531Z,0.00
2019-05-03T02:24:56.528Z,0.00
2019-05-03T02:25:59.142Z,0.00
2019-05-03T02:26:56.522Z,0.00
2019-05-03T02:27:56.520Z,0.00
2019-05-03T02:28:56.519Z,0.00
2019-05-03T02:29:56.500Z,0.00
2019-05-03T02:30:56.533Z,0.00
2019-05-03T02:31:56.478Z,0.00
2019-05-03T02:32:56.471Z,0.00
2019-05-03T02:33:56.426Z,0.00
2019-05-03T02:34:56.437Z,0.00
2019-05-03T02:35:56.414Z,0.00
2019-05-03T02:36:56.417Z,0.00
2019-05-03T02:37:56.383Z,0.00
2019-05-03T02:38:56.371Z,0.00
2019-05-03T02:39:56.377Z,0.00
2019-05-03T02:40:56.377Z,0.00
2019-05-03T02:42:02.987Z,0.00
2019-05-03T02:42:57.350Z,0.00
2019-05-03T02:43:56.352Z,0.00
2019-05-03T02:44:56.313Z,0.00
2019-05-03T02:45:56.857Z,0.00
2019-05-03T02:46:56.382Z,0.00
2019-05-03T02:47:56.278Z,0.00
2019-05-03T02:48:56.267Z,0.00
2019-05-03T02:49:56.399Z,0.00
2019-05-03T02:50:56.315Z,0.00
2019-05-03T02:51:56.234Z,0.00
2019-05-03T02:52:56.222Z,0.00
2019-05-03T02:53:57.145Z,0.00
2019-05-03T02:54:56.202Z,0.00
2019-05-03T02:56:13.340Z,0.00
2019-05-03T02:56:57.195Z,0.00
2019-05-03T02:57:56.489Z,0.00
2019-05-03T02:58:56.289Z,0.00
2019-05-03T02:59:56.176Z,0.00
2019-05-03T03:02:18.050Z,0.00
2019-05-03T03:03:18.023Z,0.00
2019-05-03T03:04:17.986Z,0.00
2019-05-03T03:05:17.993Z,0.00
2019-05-03T03:06:18.031Z,0.00
2019-05-03T03:07:17.951Z,0.00
2019-05-03T03:08:17.964Z,0.00
2019-05-03T03:09:17.931Z,0.00
2019-05-03T03:10:17.923Z,0.00
2019-05-03T03:11:17.936Z,0.00
2019-05-03T03:12:17.934Z,0.00
2019-05-03T03:13:17.907Z,0.00
2019-05-03T03:14:17.878Z,0.00
2019-05-03T03:15:17.870Z,0.00
2019-05-03T03:16:20.700Z,0.00
2019-05-03T03:17:17.849Z,0.00
2019-05-03T03:18:17.839Z,0.00
2019-05-03T03:19:17.852Z,0.00
2019-05-03T03:20:17.819Z,0.00
2019-05-03T03:21:17.835Z,0.00
2019-05-03T03:22:17.791Z,0.00
2019-05-03T03:23:18.102Z,0.00
2019-05-03T03:24:17.766Z,0.00
2019-05-03T03:25:17.876Z,0.00
2019-05-03T03:26:33.287Z,0.00
2019-05-03T03:27:18.733Z,0.00
2019-05-03T03:28:17.722Z,0.00
2019-05-03T03:29:17.714Z,0.00
2019-05-03T03:30:17.703Z,0.00
2019-05-03T03:31:18.020Z,0.00
2019-05-03T03:32:18.799Z,4.00
2019-05-03T03:33:18.132Z,4.00
2019-05-03T03:34:18.700Z,0.00
2019-05-03T03:35:21.230Z,0.00
2019-05-03T03:36:50.403Z,0.00
2019-05-03T03:37:18.690Z,4.00
2019-05-03T03:38:17.618Z,4.00
2019-05-03T03:39:17.602Z,0.00
2019-05-03T03:40:17.600Z,4.00
2019-05-03T03:41:17.586Z,4.00
2019-05-03T03:42:17.651Z,0.00
2019-05-03T03:43:17.573Z,4.00
2019-05-03T03:44:17.557Z,8.00
2019-05-03T03:45:17.546Z,4.00
2019-05-03T03:46:17.527Z,4.00
2019-05-03T03:47:17.543Z,8.00
2019-05-03T03:48:17.538Z,8.00
2019-05-03T03:49:17.502Z,8.00
2019-05-03T03:50:17.483Z,8.00
2019-05-03T03:51:17.476Z,8.00
2019-05-03T03:52:17.464Z,12.00
2019-05-03T03:53:17.478Z,8.00
2019-05-03T03:54:17.492Z,12.00
2019-05-03T03:55:17.445Z,12.00
2019-05-03T03:56:17.418Z,12.00
2019-05-03T03:57:17.433Z,16.00
2019-05-03T03:58:22.431Z,16.00
2019-05-03T03:59:18.387Z,16.00
2019-05-03T04:00:17.394Z,20.00
2019-05-03T04:01:17.366Z,20.00
2019-05-03T04:02:17.383Z,20.00
2019-05-03T04:03:17.345Z,24.00
2019-05-03T04:04:17.334Z,24.00
2019-05-03T04:05:17.348Z,28.00
2019-05-03T04:06:17.313Z,32.00
2019-05-03T04:07:17.366Z,32.00
2019-05-03T04:08:17.297Z,36.00
2019-05-03T04:09:17.307Z,40.00
2019-05-03T04:10:17.292Z,40.00
2019-05-03T04:11:17.310Z,44.00
2019-05-03T04:12:17.297Z,44.00
2019-05-03T04:13:17.269Z,48.00
2019-05-03T04:14:17.250Z,52.00
2019-05-03T04:15:17.236Z,52.00
2019-05-03T04:16:20.924Z,56.00
2019-05-03T04:17:17.268Z,64.00
2019-05-03T04:18:17.214Z,68.00
2019-05-03T04:19:17.565Z,72.00
2019-05-03T04:20:17.179Z,76.00
2019-05-03T04:21:17.146Z,84.00
2019-05-03T04:22:17.161Z,92.00
2019-05-03T04:23:17.142Z,100.00
2019-05-03T04:24:17.116Z,112.00
2019-05-03T04:25:17.099Z,120.00
2019-05-03T04:26:17.098Z,136.00
2019-05-03T04:27:22.885Z,148.00
2019-05-03T04:28:18.088Z,164.00
2019-05-03T04:29:17.078Z,180.00
2019-05-03T04:30:17.044Z,196.00
2019-05-03T04:31:17.038Z,204.00
2019-05-03T04:32:17.044Z,220.00
2019-05-03T04:33:17.044Z,240.00
2019-05-03T04:34:17.007Z,256.00
2019-05-03T04:35:17.005Z,272.00
2019-05-03T04:36:16.992Z,288.00
2019-05-03T04:37:16.965Z,300.00
2019-05-03T04:38:16.964Z,328.00
2019-05-03T04:39:19.986Z,352.00
2019-05-03T04:40:16.938Z,384.00
2019-05-03T04:41:16.942Z,416.00
2019-05-03T04:42:16.911Z,460.00
2019-05-03T04:43:16.926Z,500.00
2019-05-03T04:44:16.890Z,532.00
2019-05-03T04:45:16.899Z,544.00
2019-05-03T04:46:16.889Z,552.00
2019-05-03T04:47:16.888Z,572.00
2019-05-03T04:48:16.867Z,600.00
2019-05-03T04:49:16.841Z,624.00
2019-05-03T04:50:16.822Z,648.00
2019-05-03T04:51:16.869Z,680.00
2019-05-03T04:52:16.805Z,684.00
2019-05-03T04:53:16.827Z,696.00
2019-05-03T04:54:16.779Z,700.00
2019-05-03T04:55:16.766Z,692.00
2019-05-03T04:56:17.094Z,724.00
2019-05-03T04:57:34.276Z,720.00
2019-05-03T04:58:17.777Z,708.00
2019-05-03T04:59:16.732Z,780.00
2019-05-03T05:00:16.713Z,724.00
2019-05-03T05:01:16.696Z,744.00
2019-05-03T05:02:16.684Z,748.00
2019-05-03T05:03:16.692Z,744.00
2019-05-03T05:04:16.708Z,744.00
2019-05-03T05:05:16.656Z,788.00
2019-05-03T05:06:16.649Z,788.00
2019-05-03T05:07:16.640Z,832.00
2019-05-03T05:08:16.643Z,848.00
2019-05-03T05:09:16.614Z,844.00
2019-05-03T05:10:16.624Z,856.00
2019-05-03T05:11:16.590Z,892.00
2019-05-03T05:12:16.803Z,936.00
2019-05-03T05:13:16.565Z,984.00
2019-05-03T05:14:16.565Z,1032.00
2019-05-03T05:15:16.547Z,1064.00
2019-05-03T05:16:16.546Z,1068.00
2019-05-03T05:17:16.732Z,1084.00
2019-05-03T05:18:16.565Z,1116.00
2019-05-03T05:19:16.496Z,1132.00
2019-05-03T05:20:16.491Z,1156.00
2019-05-03T05:21:16.479Z,1160.00
2019-05-03T05:22:16.476Z,1160.00
2019-05-03T05:23:16.479Z,1172.00
2019-05-03T05:24:16.446Z,1196.00
2019-05-03T05:25:16.469Z,1224.00
2019-05-03T05:26:16.427Z,1240.00
2019-05-03T05:27:16.418Z,1268.00
2019-05-03T05:28:16.417Z,1324.00
2019-05-03T05:29:16.391Z,1348.00
2019-05-03T05:30:16.412Z,1360.00
2019-05-03T05:31:16.429Z,1388.00
2019-05-03T05:32:16.372Z,1408.00
2019-05-03T05:33:16.367Z,1400.00
2019-05-03T05:34:16.336Z,1396.00
2019-05-03T05:35:16.322Z,1400.00
2019-05-03T05:36:16.315Z,1388.00
2019-05-03T05:37:16.323Z,1392.00
2019-05-03T05:38:16.291Z,1404.00
2019-05-03T05:39:18.743Z,1708.00
2019-05-03T05:40:16.272Z,1604.00
2019-05-03T05:41:16.307Z,1752.00
2019-05-03T05:42:16.280Z,1624.00
2019-05-03T05:43:16.255Z,1908.00
2019-05-03T05:44:16.251Z,1928.00
2019-05-03T05:45:16.243Z,1932.00
2019-05-03T05:46:16.209Z,1912.00
2019-05-03T05:47:16.196Z,1800.00
2019-05-03T05:48:16.190Z,1592.00
2019-05-03T05:49:16.195Z,1368.00
2019-05-03T05:50:16.190Z,1124.00
2019-05-03T05:51:16.315Z,1240.00
2019-05-03T05:52:16.144Z,1112.00
2019-05-03T05:53:16.155Z,1140.00
2019-05-03T05:54:16.195Z,1376.00
2019-05-03T05:55:16.136Z,1592.00
2019-05-03T05:56:16.128Z,1612.00
2019-05-03T05:57:16.135Z,1632.00
2019-05-03T05:58:16.076Z,1696.00
2019-05-03T05:59:16.140Z,1756.00
2019-05-03T06:00:16.078Z,1828.00
2019-05-03T06:01:16.072Z,1916.00
2019-05-03T06:02:16.030Z,1976.00
2019-05-03T06:03:16.054Z,2056.00
2019-05-03T06:04:16.075Z,2236.00
2019-05-03T06:05:16.034Z,2352.00
2019-05-03T06:06:16.008Z,1952.00
2019-05-03T06:07:15.981Z,2096.00
2019-05-03T06:08:15.962Z,2472.00
2019-05-03T06:09:15.990Z,2300.00
2019-05-03T06:10:16.690Z,2152.00
2019-05-03T06:11:15.945Z,2236.00
2019-05-03T06:12:15.934Z,2244.00
2019-05-03T06:13:15.925Z,2144.00
2019-05-03T06:14:15.955Z,2436.00
2019-05-03T06:15:15.893Z,2116.00
2019-05-03T06:16:15.902Z,2292.00
2019-05-03T06:17:15.921Z,2092.00
2019-05-03T06:18:15.873Z,2224.00
2019-05-03T06:19:15.858Z,1908.00
2019-05-03T06:20:15.904Z,1828.00
2019-05-03T06:21:15.826Z,1872.00
2019-05-03T06:22:15.815Z,1840.00
2019-05-03T06:23:15.810Z,1896.00
2019-05-03T06:24:15.821Z,1940.00
2019-05-03T06:25:16.574Z,1932.00
2019-05-03T06:26:15.786Z,1940.00
2019-05-03T06:27:15.762Z,1968.00
2019-05-03T06:28:20.567Z,2264.00
2019-05-03T06:29:16.767Z,2008.00
2019-05-03T06:30:15.734Z,2068.00
2019-05-03T06:31:15.718Z,2192.00
2019-05-03T06:32:15.730Z,2040.00
2019-05-03T06:33:15.696Z,1952.00
2019-05-03T06:34:15.686Z,2372.00
2019-05-03T06:35:15.699Z,2192.00
2019-05-03T06:36:15.664Z,1552.00
2019-05-03T06:37:15.699Z,1620.00
2019-05-03T06:38:15.662Z,1656.00
2019-05-03T06:39:15.637Z,1560.00
2019-05-03T06:40:15.651Z,1848.00
2019-05-03T06:41:16.329Z,2160.00
2019-05-03T06:42:19.177Z,2224.00
2019-05-03T06:43:15.805Z,2232.00
2019-05-03T06:44:19.267Z,2228.00
2019-05-03T06:45:16.589Z,2244.00
2019-05-03T06:46:17.890Z,2276.00
2019-05-03T06:47:15.621Z,2324.00
2019-05-03T06:48:17.577Z,2368.00
2019-05-03T06:49:15.547Z,2440.00
2019-05-03T06:50:19.386Z,2448.00
2019-05-03T06:51:20.009Z,2584.00
2019-05-03T06:52:19.756Z,2604.00
2019-05-03T06:53:16.478Z,2632.00
2019-05-03T06:54:15.970Z,2608.00
2019-05-03T06:55:15.513Z,2392.00
2019-05-03T06:56:19.396Z,2380.00
2019-05-03T06:57:16.464Z,2124.00
2019-05-03T06:58:30.052Z,1852.00
2019-05-03T06:59:16.409Z,1844.00
2019-05-03T07:00:15.517Z,1964.00
2019-05-03T07:01:15.388Z,2248.00
2019-05-03T07:02:15.398Z,2128.00
2019-05-03T07:03:15.368Z,2432.00
2019-05-03T07:04:15.372Z,2492.00
2019-05-03T07:05:15.353Z,2204.00
2019-05-03T07:06:15.370Z,2468.00
2019-05-03T07:07:15.581Z,2460.00
2019-05-03T07:08:15.323Z,2008.00
2019-05-03T07:09:15.300Z,1996.00
2019-05-03T07:10:15.516Z,2284.00
2019-05-03T07:11:15.516Z,2212.00
2019-05-03T07:12:15.266Z,2216.00
2019-05-03T07:13:15.341Z,1916.00
2019-05-03T07:14:15.621Z,2068.00
2019-05-03T07:15:15.239Z,2236.00
2019-05-03T07:16:15.251Z,2136.00
2019-05-03T07:17:15.206Z,2148.00
2019-05-03T07:18:15.698Z,1724.00
2019-05-03T07:19:15.186Z,1652.00
2019-05-03T07:20:15.203Z,1576.00
2019-05-03T07:21:15.375Z,1588.00
2019-05-03T07:22:15.316Z,1604.00
2019-05-03T07:23:15.576Z,1744.00
2019-05-03T07:24:15.148Z,1856.00
2019-05-03T07:25:15.139Z,1840.00
2019-05-03T07:26:15.235Z,1912.00
2019-05-03T07:27:15.851Z,2096.00
2019-05-03T07:28:15.205Z,2060.00
2019-05-03T07:29:15.327Z,2212.00
2019-05-03T07:30:15.647Z,1848.00
2019-05-03T07:31:15.299Z,2052.00
2019-05-03T07:32:15.650Z,1744.00
2019-05-03T07:33:15.129Z,1912.00
2019-05-03T07:34:15.618Z,1956.00
2019-05-03T07:35:15.057Z,1988.00
2019-05-03T07:36:15.436Z,2012.00
2019-05-03T07:37:14.998Z,1992.00
2019-05-03T07:38:15.549Z,2444.00
2019-05-03T07:39:14.986Z,2380.00
2019-05-03T07:40:14.979Z,2184.00
2019-05-03T07:41:15.041Z,1852.00
2019-05-03T07:42:15.682Z,1860.00
2019-05-03T07:43:15.024Z,1900.00
2019-05-03T07:44:15.291Z,2016.00
2019-05-03T07:45:14.975Z,2552.00
2019-05-03T07:46:14.917Z,2632.00
2019-05-03T07:47:14.985Z,2704.00
2019-05-03T07:48:15.137Z,2880.00
2019-05-03T07:49:15.366Z,2816.00
2019-05-03T07:50:15.367Z,2820.00
2019-05-03T07:51:14.816Z,2736.00
2019-05-03T07:52:14.943Z,2796.00
2019-05-03T07:53:15.145Z,2816.00
2019-05-03T07:54:15.733Z,2592.00
2019-05-03T07:55:15.040Z,2268.00
2019-05-03T07:56:15.526Z,1816.00
2019-05-03T07:57:14.974Z,1852.00
2019-05-03T07:58:15.105Z,1856.00
2019-05-03T07:59:15.041Z,1880.00
2019-05-03T08:00:15.032Z,1996.00
2019-05-03T08:01:14.992Z,2040.00
2019-05-03T08:02:14.758Z,2412.00
2019-05-03T08:03:15.520Z,2320.00
2019-05-03T08:04:15.406Z,1952.00
2019-05-03T08:05:15.565Z,1952.00
2019-05-03T08:06:15.029Z,1980.00
2019-05-03T08:07:22.350Z,2016.00
2019-05-03T08:08:15.630Z,2048.00
2019-05-03T08:09:15.316Z,2132.00
2019-05-03T08:10:15.284Z,2248.00
2019-05-03T08:11:14.679Z,2328.00
2019-05-03T08:12:15.353Z,2600.00
2019-05-03T08:13:15.250Z,2952.00
2019-05-03T08:14:17.763Z,2784.00
2019-05-03T08:15:15.720Z,2696.00
2019-05-03T08:16:16.058Z,2724.00
2019-05-03T08:17:15.270Z,2752.00
2019-05-03T08:18:15.332Z,2796.00
2019-05-03T08:19:15.207Z,2748.00
2019-05-03T08:20:14.518Z,2976.00
2019-05-03T08:21:14.976Z,3044.00
2019-05-03T08:22:14.971Z,3060.00
2019-05-03T08:23:26.259Z,2984.00
2019-05-03T08:24:15.449Z,2932.00
2019-05-03T08:25:14.687Z,2892.00
2019-05-03T08:26:15.319Z,2640.00
2019-05-03T08:27:14.872Z,2696.00
2019-05-03T08:28:14.760Z,2420.00
2019-05-03T08:29:18.613Z,2684.00
2019-05-03T08:30:14.765Z,2708.00
2019-05-03T08:31:15.094Z,2700.00
2019-05-03T08:32:15.434Z,2668.00
2019-05-03T08:33:14.802Z,2700.00
2019-05-03T08:34:15.271Z,2668.00
2019-05-03T08:35:15.335Z,2636.00
2019-05-03T08:36:15.692Z,2660.00
2019-05-03T08:37:15.357Z,2580.00
2019-05-03T08:38:15.274Z,2652.00
2019-05-03T08:39:15.822Z,2708.00
2019-05-03T08:40:15.613Z,2752.00
2019-05-03T08:41:14.519Z,2852.00
2019-05-03T08:42:14.923Z,2920.00
2019-05-03T08:43:15.612Z,2952.00
2019-05-03T08:44:14.582Z,2988.00
2019-05-03T08:45:14.805Z,3208.00
2019-05-03T08:46:14.842Z,3252.00
2019-05-03T08:47:15.528Z,3228.00
2019-05-03T08:48:15.131Z,3108.00
2019-05-03T08:49:15.053Z,2920.00
2019-05-03T08:50:20.687Z,2524.00
2019-05-03T08:51:15.183Z,2156.00
2019-05-03T08:52:15.681Z,1948.00
2019-05-03T08:53:15.556Z,1840.00
2019-05-03T08:54:15.061Z,1728.00
2019-05-03T08:55:15.883Z,1652.00
2019-05-03T08:56:15.651Z,1700.00
2019-05-03T08:57:14.994Z,1796.00
2019-05-03T08:58:15.497Z,1896.00
2019-05-03T08:59:26.741Z,2040.00
2019-05-03T09:00:15.057Z,2200.00
2019-05-03T09:01:14.829Z,2308.00
2019-05-03T09:02:17.441Z,2396.00
2019-05-03T09:03:14.483Z,2420.00
2019-05-03T09:04:15.408Z,2412.00
2019-05-03T09:05:15.755Z,2412.00
2019-05-03T09:06:15.419Z,2432.00
2019-05-03T09:07:14.777Z,2544.00
2019-05-03T09:08:15.720Z,2932.00
2019-05-03T09:09:15.083Z,3012.00
2019-05-03T09:10:16.869Z,2968.00
2019-05-03T09:11:15.540Z,2600.00
2019-05-03T09:12:14.507Z,2568.00
2019-05-03T09:13:14.762Z,2588.00
2019-05-03T09:14:14.945Z,2548.00
2019-05-03T09:15:15.202Z,2452.00
2019-05-03T09:16:14.806Z,2868.00
2019-05-03T09:17:15.288Z,2944.00
2019-05-03T09:18:16.796Z,2904.00
2019-05-03T09:19:14.692Z,3032.00
2019-05-03T09:20:15.553Z,3208.00
2019-05-03T09:21:14.820Z,3220.00
2019-05-03T09:22:14.771Z,3168.00
2019-05-03T09:23:14.849Z,3080.00
2019-05-03T09:24:15.168Z,2888.00
2019-05-03T09:25:15.462Z,2628.00
2019-05-03T09:26:15.103Z,2508.00
2019-05-03T09:27:15.464Z,2548.00
2019-05-03T09:28:15.057Z,2424.00
2019-05-03T09:29:14.817Z,2212.00
2019-05-03T09:30:14.546Z,2068.00
2019-05-03T09:31:15.450Z,1968.00
2019-05-03T09:32:14.737Z,1960.00
2019-05-03T09:33:15.369Z,1988.00
2019-05-03T09:34:14.758Z,2060.00
2019-05-03T09:35:28.935Z,2220.00
2019-05-03T09:36:14.916Z,2356.00
2019-05-03T09:37:15.502Z,2444.00
2019-05-03T09:38:15.031Z,2604.00
2019-05-03T09:39:14.915Z,2736.00
2019-05-03T09:40:15.158Z,2848.00
2019-05-03T09:41:15.046Z,2860.00
2019-05-03T09:42:15.381Z,2880.00
2019-05-03T09:43:15.077Z,2888.00
2019-05-03T09:44:15.115Z,2920.00
2019-05-03T09:45:15.365Z,2916.00
2019-05-03T09:46:14.524Z,2844.00
2019-05-03T09:47:14.626Z,2700.00
2019-05-03T09:48:15.027Z,2580.00
2019-05-03T09:49:16.258Z,2496.00
2019-05-03T09:50:15.494Z,2188.00
2019-05-03T09:51:14.747Z,2044.00
2019-05-03T09:52:16.055Z,1920.00
2019-05-03T09:53:14.775Z,1852.00
2019-05-03T09:54:14.826Z,1812.00
2019-05-03T09:55:14.546Z,1916.00
2019-05-03T09:56:15.361Z,2028.00
2019-05-03T09:57:15.229Z,2052.00
2019-05-03T09:58:15.363Z,2040.00
2019-05-03T09:59:14.802Z,2012.00
2019-05-03T10:00:13.388Z,1956.00
2019-05-03T10:01:15.062Z,1864.00
2019-05-03T10:02:15.166Z,1808.00
2019-05-03T10:03:13.369Z,1800.00
2019-05-03T10:04:13.386Z,1836.00
2019-05-03T10:05:15.531Z,1852.00
2019-05-03T10:06:15.323Z,1912.00
2019-05-03T10:07:15.295Z,1964.00
2019-05-03T10:08:15.592Z,2068.00
2019-05-03T10:09:15.445Z,2116.00
2019-05-03T10:10:15.383Z,2148.00
2019-05-03T10:11:15.464Z,2212.00
2019-05-03T10:12:13.306Z,2256.00
2019-05-03T10:13:21.727Z,2336.00
2019-05-03T10:14:15.575Z,2416.00
2019-05-03T10:15:15.350Z,2496.00
2019-05-03T10:16:15.322Z,2544.00
2019-05-03T10:17:15.225Z,2580.00
2019-05-03T10:18:13.193Z,2628.00
2019-05-03T10:19:14.369Z,2696.00
2019-05-03T10:20:14.948Z,2676.00
2019-05-03T10:21:14.800Z,2692.00
2019-05-03T10:22:13.147Z,2628.00
2019-05-03T10:23:14.900Z,2448.00
2019-05-03T10:24:14.841Z,2280.00
2019-05-03T10:25:13.130Z,2108.00
2019-05-03T10:26:14.936Z,1932.00
2019-05-03T10:27:15.110Z,1824.00
2019-05-03T10:28:15.203Z,1704.00
2019-05-03T10:29:15.120Z,1676.00
2019-05-03T10:30:14.482Z,1708.00
2019-05-03T10:31:13.042Z,1748.00
2019-05-03T10:32:15.034Z,1768.00
2019-05-03T10:33:15.331Z,1708.00
2019-05-03T10:34:15.428Z,1708.00
2019-05-03T10:35:15.131Z,1692.00
2019-05-03T10:36:15.204Z,1644.00
2019-05-03T10:37:15.133Z,1612.00
2019-05-03T10:38:15.014Z,1628.00
2019-05-03T10:39:12.970Z,1700.00
2019-05-03T10:40:12.940Z,1824.00
2019-05-03T10:41:12.930Z,1924.00
2019-05-03T10:42:12.918Z,2076.00
2019-05-03T10:43:12.938Z,2184.00
2019-05-03T10:44:14.905Z,2132.00
2019-05-03T10:45:15.133Z,2036.00
2019-05-03T10:46:12.880Z,2020.00
2019-05-03T10:47:14.668Z,2184.00
2019-05-03T10:48:15.277Z,2436.00
2019-05-03T10:49:15.143Z,2652.00
2019-05-03T10:50:12.862Z,2696.00
2019-05-03T10:51:12.826Z,2680.00
2019-05-03T10:52:14.909Z,2632.00
2019-05-03T10:53:12.856Z,2576.00
2019-05-03T10:54:14.620Z,2540.00
2019-05-03T10:55:12.803Z,2464.00
2019-05-03T10:56:13.834Z,2496.00
2019-05-03T10:57:12.784Z,2620.00
2019-05-03T10:58:12.818Z,2532.00
2019-05-03T10:59:12.757Z,2428.00
2019-05-03T11:00:39.327Z,2320.00
2019-05-03T11:01:13.731Z,2336.00
2019-05-03T11:02:12.733Z,2500.00
2019-05-03T11:03:12.784Z,2784.00
2019-05-03T11:04:14.262Z,2772.00
2019-05-03T11:05:14.543Z,2788.00
2019-05-03T11:06:14.754Z,2648.00
2019-05-03T11:07:14.766Z,2584.00
2019-05-03T11:08:14.539Z,2656.00
2019-05-03T11:09:15.175Z,2720.00
2019-05-03T11:10:14.580Z,2688.00
2019-05-03T11:11:12.594Z,2592.00
2019-05-03T11:12:14.674Z,2692.00
2019-05-03T11:13:15.265Z,2764.00
2019-05-03T11:14:14.782Z,2800.00
2019-05-03T11:15:12.549Z,2924.00
2019-05-03T11:16:14.714Z,2996.00
2019-05-03T11:17:14.738Z,3008.00
2019-05-03T11:18:14.586Z,2972.00
2019-05-03T11:19:14.430Z,2784.00
2019-05-03T11:20:15.449Z,2700.00
2019-05-03T11:21:15.531Z,2700.00
2019-05-03T11:22:14.569Z,2716.00
2019-05-03T11:23:14.483Z,2792.00
2019-05-03T11:24:14.553Z,2908.00
2019-05-03T11:25:12.445Z,2876.00
2019-05-03T11:26:12.454Z,2824.00
2019-05-03T11:27:12.418Z,2792.00
2019-05-03T11:28:12.419Z,2740.00
2019-05-03T11:29:12.425Z,2700.00
2019-05-03T11:30:12.389Z,2752.00
2019-05-03T11:31:12.376Z,2688.00
2019-05-03T11:32:12.379Z,2584.00
2019-05-03T11:33:12.354Z,2548.00
2019-05-03T11:34:12.439Z,2556.00
2019-05-03T11:35:12.327Z,2548.00
2019-05-03T11:36:12.316Z,2516.00
2019-05-03T11:37:14.457Z,2336.00
2019-05-03T11:38:12.321Z,2240.00
2019-05-03T11:39:14.405Z,2124.00
2019-05-03T11:40:12.275Z,2008.00
2019-05-03T11:41:12.263Z,1900.00
2019-05-03T11:42:12.251Z,1780.00
2019-05-03T11:43:12.271Z,1688.00
2019-05-03T11:44:12.280Z,1632.00
2019-05-03T11:45:12.228Z,1616.00
2019-05-03T11:46:12.207Z,1712.00
2019-05-03T11:47:12.196Z,1916.00
2019-05-03T11:48:12.183Z,2152.00
2019-05-03T11:49:12.190Z,2380.00
2019-05-03T11:50:12.192Z,2524.00
2019-05-03T11:51:12.186Z,2628.00
2019-05-03T11:52:12.146Z,2740.00
2019-05-03T11:53:12.133Z,2684.00
2019-05-03T11:54:12.138Z,2296.00
2019-05-03T11:55:12.501Z,2388.00
2019-05-03T11:56:12.249Z,2004.00
2019-05-03T11:57:12.108Z,1876.00
2019-05-03T11:58:12.082Z,1788.00
2019-05-03T11:59:12.112Z,1808.00
2019-05-03T12:00:12.050Z,1700.00
2019-05-03T12:01:17.033Z,1728.00
2019-05-03T12:02:13.030Z,1916.00
2019-05-03T12:03:12.023Z,2028.00
2019-05-03T12:04:12.030Z,2004.00
2019-05-03T12:05:11.993Z,2032.00
2019-05-03T12:06:11.983Z,2068.00
2019-05-03T12:07:12.000Z,2100.00
2019-05-03T12:08:11.960Z,2168.00
2019-05-03T12:09:12.016Z,2084.00
2019-05-03T12:10:20.628Z,1940.00
2019-05-03T12:11:14.902Z,2072.00
2019-05-03T12:12:11.922Z,2164.00
2019-05-03T12:13:11.933Z,2132.00
2019-05-03T12:14:11.925Z,1968.00
2019-05-03T12:15:11.927Z,1772.00
2019-05-03T12:16:20.557Z,1608.00
2019-05-03T12:17:19.122Z,1476.00
2019-05-03T12:18:13.058Z,1444.00
2019-05-03T12:19:16.887Z,1424.00
2019-05-03T12:20:14.686Z,1480.00
2019-05-03T12:21:12.945Z,1736.00
2019-05-03T12:22:12.374Z,1720.00
2019-05-03T12:23:12.428Z,1748.00
2019-05-03T12:24:12.259Z,1884.00
2019-05-03T12:25:12.434Z,2088.00
2019-05-03T12:26:13.703Z,2256.00
2019-05-03T12:27:11.756Z,2384.00
2019-05-03T12:28:11.796Z,2680.00
2019-05-03T12:29:11.742Z,2648.00
2019-05-03T12:30:11.740Z,2348.00
2019-05-03T12:31:26.895Z,2468.00
2019-05-03T12:32:14.425Z,2472.00